sensor_id;sensor_type;location;lat;lon;timestamp;P1;durP1;ratioP1;P2;durP2;ratioP2
635;SDS011;302;50.206;8.196;2023-07-20T00:00:41;4.20;;;3.33;;
635;SDS011;302;50.206;8.196;2023-07-20T00:03:09;4.18;;;3.47;;
635;SDS011;302;50.206;8.196;2023-07-20T00:05:35;3.50;;;3.20;;
635;SDS011;302;50.206;8.196;2023-07-20T00:08:00;5.43;;;3.73;;
635;SDS011;302;50.206;8.196;2023-07-20T00:10:25;3.30;;;3.00;;
635;SDS011;302;50.206;8.196;2023-07-20T00:12:50;4.85;;;3.00;;
635;SDS011;302;50.206;8.196;2023-07-20T00:15:15;3.65;;;3.33;;
635;SDS011;302;50.206;8.196;2023-07-20T00:17:40;6.07;;;3.43;;
635;SDS011;302;50.206;8.196;2023-07-20T00:20:06;6.80;;;3.20;;
635;SDS011;302;50.206;8.196;2023-07-20T00:22:31;3.37;;;3.07;;
635;SDS011;302;50.206;8.196;2023-07-20T00:24:56;3.47;;;3.20;;
635;SDS011;302;50.206;8.196;2023-07-20T00:27:21;5.38;;;3.92;;
635;SDS011;302;50.206;8.196;2023-07-20T00:29:46;3.33;;;3.00;;
635;SDS011;302;50.206;8.196;2023-07-20T00:32:12;3.60;;;3.17;;
635;SDS011;302;50.206;8.196;2023-07-20T00:34:37;3.55;;;3.00;;
635;SDS011;302;50.206;8.196;2023-07-20T00:37:02;4.10;;;3.65;;
635;SDS011;302;50.206;8.196;2023-07-20T00:39:27;8.70;;;3.20;;
635;SDS011;302;50.206;8.196;2023-07-20T00:41:52;4.10;;;3.37;;
635;SDS011;302;50.206;8.196;2023-07-20T00:44:17;3.03;;;2.72;;
635;SDS011;302;50.206;8.196;2023-07-20T00:46:42;5.00;;;2.95;;
635;SDS011;302;50.206;8.196;2023-07-20T00:49:08;4.70;;;3.88;;
635;SDS011;302;50.206;8.196;2023-07-20T00:51:34;4.53;;;3.60;;
635;SDS011;302;50.206;8.196;2023-07-20T00:53:59;5.27;;;3.20;;
635;SDS011;302;50.206;8.196;2023-07-20T00:56:24;4.10;;;3.70;;
635;SDS011;302;50.206;8.196;2023-07-20T00:58:49;3.60;;;3.30;;
635;SDS011;302;50.206;8.196;2023-07-20T01:01:15;5.80;;;3.30;;
635;SDS011;302;50.206;8.196;2023-07-20T01:03:40;4.03;;;3.63;;
635;SDS011;302;50.206;8.196;2023-07-20T01:06:10;5.18;;;3.40;;
635;SDS011;302;50.206;8.196;2023-07-20T01:11:22;3.42;;;3.13;;
635;SDS011;302;50.206;8.196;2023-07-20T01:13:48;2.83;;;2.50;;
635;SDS011;302;50.206;8.196;2023-07-20T01:16:13;4.03;;;3.23;;
635;SDS011;302;50.206;8.196;2023-07-20T01:18:38;4.05;;;3.00;;
635;SDS011;302;50.206;8.196;2023-07-20T01:21:06;5.32;;;3.35;;
635;SDS011;302;50.206;8.196;2023-07-20T01:28:57;3.47;;;3.17;;
635;SDS011;302;50.206;8.196;2023-07-20T01:31:30;3.25;;;2.83;;
635;SDS011;302;50.206;8.196;2023-07-20T01:33:57;4.40;;;3.13;;
635;SDS011;302;50.206;8.196;2023-07-20T01:36:23;2.85;;;2.63;;
635;SDS011;302;50.206;8.196;2023-07-20T01:38:49;5.50;;;3.10;;
635;SDS011;302;50.206;8.196;2023-07-20T01:41:15;3.87;;;3.20;;
635;SDS011;302;50.206;8.196;2023-07-20T01:43:40;3.77;;;2.73;;
635;SDS011;302;50.206;8.196;2023-07-20T01:46:05;3.57;;;3.17;;
635;SDS011;302;50.206;8.196;2023-07-20T01:48:31;4.40;;;3.13;;
635;SDS011;302;50.206;8.196;2023-07-20T01:50:56;4.20;;;3.33;;
635;SDS011;302;50.206;8.196;2023-07-20T01:53:22;3.80;;;2.97;;
635;SDS011;302;50.206;8.196;2023-07-20T01:55:47;3.50;;;3.00;;
635;SDS011;302;50.206;8.196;2023-07-20T01:58:12;3.40;;;3.10;;
635;SDS011;302;50.206;8.196;2023-07-20T02:00:38;3.80;;;3.50;;
635;SDS011;302;50.206;8.196;2023-07-20T02:03:03;3.57;;;3.20;;
635;SDS011;302;50.206;8.196;2023-07-20T02:05:28;3.73;;;3.37;;
635;SDS011;302;50.206;8.196;2023-07-20T02:07:53;3.53;;;3.23;;
635;SDS011;302;50.206;8.196;2023-07-20T02:10:19;6.23;;;3.90;;
635;SDS011;302;50.206;8.196;2023-07-20T02:12:44;3.28;;;2.97;;
635;SDS011;302;50.206;8.196;2023-07-20T02:15:09;5.73;;;3.40;;
635;SDS011;302;50.206;8.196;2023-07-20T02:17:34;3.40;;;3.10;;
635;SDS011;302;50.206;8.196;2023-07-20T02:20:00;5.47;;;3.70;;
635;SDS011;302;50.206;8.196;2023-07-20T02:22:25;3.53;;;3.23;;
635;SDS011;302;50.206;8.196;2023-07-20T02:24:50;4.00;;;3.70;;
635;SDS011;302;50.206;8.196;2023-07-20T02:27:15;4.40;;;3.20;;
635;SDS011;302;50.206;8.196;2023-07-20T02:29:41;4.37;;;3.40;;
635;SDS011;302;50.206;8.196;2023-07-20T02:32:06;3.60;;;3.10;;
635;SDS011;302;50.206;8.196;2023-07-20T02:34:31;4.27;;;3.40;;
635;SDS011;302;50.206;8.196;2023-07-20T02:36:57;5.10;;;3.97;;
635;SDS011;302;50.206;8.196;2023-07-20T02:39:23;3.25;;;2.83;;
635;SDS011;302;50.206;8.196;2023-07-20T02:41:49;4.27;;;3.03;;
635;SDS011;302;50.206;8.196;2023-07-20T02:44:14;3.95;;;3.28;;
635;SDS011;302;50.206;8.196;2023-07-20T02:46:39;3.93;;;3.43;;
635;SDS011;302;50.206;8.196;2023-07-20T02:49:04;3.37;;;3.07;;
635;SDS011;302;50.206;8.196;2023-07-20T02:51:30;3.40;;;3.10;;
635;SDS011;302;50.206;8.196;2023-07-20T02:53:55;3.43;;;3.13;;
635;SDS011;302;50.206;8.196;2023-07-20T02:56:20;3.70;;;3.38;;
635;SDS011;302;50.206;8.196;2023-07-20T02:58:45;2.90;;;2.70;;
635;SDS011;302;50.206;8.196;2023-07-20T03:01:13;3.50;;;3.20;;
635;SDS011;302;50.206;8.196;2023-07-20T03:03:40;4.13;;;3.13;;
635;SDS011;302;50.206;8.196;2023-07-20T03:06:05;4.20;;;3.60;;
635;SDS011;302;50.206;8.196;2023-07-20T03:08:31;4.40;;;3.50;;
635;SDS011;302;50.206;8.196;2023-07-20T03:10:56;4.60;;;3.17;;
635;SDS011;302;50.206;8.196;2023-07-20T03:13:21;4.93;;;3.33;;
635;SDS011;302;50.206;8.196;2023-07-20T03:15:46;3.42;;;2.85;;
635;SDS011;302;50.206;8.196;2023-07-20T03:18:11;5.83;;;3.20;;
635;SDS011;302;50.206;8.196;2023-07-20T03:20:36;5.27;;;3.80;;
635;SDS011;302;50.206;8.196;2023-07-20T03:23:02;3.80;;;3.30;;
635;SDS011;302;50.206;8.196;2023-07-20T03:25:27;3.80;;;3.10;;
635;SDS011;302;50.206;8.196;2023-07-20T03:27:52;3.80;;;3.47;;
635;SDS011;302;50.206;8.196;2023-07-20T03:30:17;5.07;;;2.90;;
635;SDS011;302;50.206;8.196;2023-07-20T03:32:43;3.67;;;3.37;;
635;SDS011;302;50.206;8.196;2023-07-20T03:35:08;5.00;;;3.63;;
635;SDS011;302;50.206;8.196;2023-07-20T03:37:33;3.20;;;2.90;;
635;SDS011;302;50.206;8.196;2023-07-20T03:40:00;4.00;;;3.53;;
635;SDS011;302;50.206;8.196;2023-07-20T03:42:25;4.00;;;3.60;;
635;SDS011;302;50.206;8.196;2023-07-20T03:44:50;3.30;;;3.00;;
635;SDS011;302;50.206;8.196;2023-07-20T03:47:16;5.23;;;3.57;;
635;SDS011;302;50.206;8.196;2023-07-20T03:49:41;5.20;;;3.73;;
635;SDS011;302;50.206;8.196;2023-07-20T03:52:07;3.77;;;3.47;;
635;SDS011;302;50.206;8.196;2023-07-20T03:54:32;3.80;;;3.30;;
635;SDS011;302;50.206;8.196;2023-07-20T03:56:57;3.80;;;3.30;;
635;SDS011;302;50.206;8.196;2023-07-20T03:59:23;3.50;;;3.20;;
635;SDS011;302;50.206;8.196;2023-07-20T04:01:48;3.40;;;3.10;;
635;SDS011;302;50.206;8.196;2023-07-20T04:04:15;3.30;;;3.00;;
635;SDS011;302;50.206;8.196;2023-07-20T04:06:41;4.15;;;3.17;;
635;SDS011;302;50.206;8.196;2023-07-20T04:09:09;3.90;;;3.35;;
635;SDS011;302;50.206;8.196;2023-07-20T04:11:34;4.70;;;3.57;;
635;SDS011;302;50.206;8.196;2023-07-20T04:13:59;4.05;;;3.72;;
635;SDS011;302;50.206;8.196;2023-07-20T04:16:25;4.00;;;3.60;;
635;SDS011;302;50.206;8.196;2023-07-20T04:18:51;3.97;;;3.30;;
635;SDS011;302;50.206;8.196;2023-07-20T04:21:16;3.83;;;3.40;;
635;SDS011;302;50.206;8.196;2023-07-20T04:23:41;5.00;;;3.83;;
635;SDS011;302;50.206;8.196;2023-07-20T04:26:06;4.13;;;3.73;;
635;SDS011;302;50.206;8.196;2023-07-20T04:28:32;4.37;;;3.93;;
635;SDS011;302;50.206;8.196;2023-07-20T04:31:09;3.90;;;3.20;;
635;SDS011;302;50.206;8.196;2023-07-20T04:33:34;4.25;;;3.75;;
635;SDS011;302;50.206;8.196;2023-07-20T04:35:59;3.80;;;3.50;;
635;SDS011;302;50.206;8.196;2023-07-20T04:38:24;5.87;;;3.20;;
635;SDS011;302;50.206;8.196;2023-07-20T04:40:49;3.60;;;3.22;;
635;SDS011;302;50.206;8.196;2023-07-20T04:43:15;3.63;;;3.33;;
635;SDS011;302;50.206;8.196;2023-07-20T04:45:41;3.80;;;3.40;;
635;SDS011;302;50.206;8.196;2023-07-20T04:48:07;4.00;;;3.70;;
635;SDS011;302;50.206;8.196;2023-07-20T04:50:33;4.22;;;3.80;;
635;SDS011;302;50.206;8.196;2023-07-20T04:52:58;3.90;;;3.50;;
635;SDS011;302;50.206;8.196;2023-07-20T04:55:23;4.17;;;3.13;;
635;SDS011;302;50.206;8.196;2023-07-20T04:57:49;3.25;;;2.95;;
635;SDS011;302;50.206;8.196;2023-07-20T05:00:14;5.55;;;3.08;;
635;SDS011;302;50.206;8.196;2023-07-20T05:02:39;4.03;;;3.20;;
635;SDS011;302;50.206;8.196;2023-07-20T05:05:04;4.03;;;3.63;;
635;SDS011;302;50.206;8.196;2023-07-20T05:07:31;3.42;;;3.13;;
635;SDS011;302;50.206;8.196;2023-07-20T05:09:56;3.40;;;3.10;;
635;SDS011;302;50.206;8.196;2023-07-20T05:12:21;5.32;;;3.70;;
635;SDS011;302;50.206;8.196;2023-07-20T05:14:46;3.93;;;3.53;;
635;SDS011;302;50.206;8.196;2023-07-20T05:17:11;4.15;;;3.28;;
635;SDS011;302;50.206;8.196;2023-07-20T05:19:36;4.13;;;3.70;;
635;SDS011;302;50.206;8.196;2023-07-20T05:22:02;4.17;;;3.50;;
635;SDS011;302;50.206;8.196;2023-07-20T05:24:27;4.13;;;3.73;;
635;SDS011;302;50.206;8.196;2023-07-20T05:26:52;4.20;;;3.80;;
635;SDS011;302;50.206;8.196;2023-07-20T05:29:17;3.40;;;3.10;;
635;SDS011;302;50.206;8.196;2023-07-20T05:31:43;3.40;;;2.97;;
635;SDS011;302;50.206;8.196;2023-07-20T05:34:08;4.77;;;3.20;;
635;SDS011;302;50.206;8.196;2023-07-20T05:36:33;4.28;;;3.75;;
635;SDS011;302;50.206;8.196;2023-07-20T05:38:58;3.57;;;3.27;;
635;SDS011;302;50.206;8.196;2023-07-20T05:41:23;4.32;;;3.28;;
635;SDS011;302;50.206;8.196;2023-07-20T05:43:48;6.27;;;3.53;;
635;SDS011;302;50.206;8.196;2023-07-20T05:46:13;4.68;;;3.25;;
635;SDS011;302;50.206;8.196;2023-07-20T05:48:39;3.57;;;3.27;;
635;SDS011;302;50.206;8.196;2023-07-20T05:51:04;6.23;;;3.47;;
635;SDS011;302;50.206;8.196;2023-07-20T05:53:30;3.83;;;3.50;;
635;SDS011;302;50.206;8.196;2023-07-20T05:55:55;3.40;;;3.10;;
635;SDS011;302;50.206;8.196;2023-07-20T05:58:20;3.73;;;3.40;;
635;SDS011;302;50.206;8.196;2023-07-20T06:00:49;3.40;;;3.10;;
635;SDS011;302;50.206;8.196;2023-07-20T06:03:15;3.70;;;3.40;;
635;SDS011;302;50.206;8.196;2023-07-20T06:05:41;3.80;;;3.40;;
635;SDS011;302;50.206;8.196;2023-07-20T06:08:06;4.37;;;3.77;;
635;SDS011;302;50.206;8.196;2023-07-20T06:10:31;3.77;;;3.47;;
635;SDS011;302;50.206;8.196;2023-07-20T06:12:57;3.97;;;3.58;;
635;SDS011;302;50.206;8.196;2023-07-20T06:15:30;4.00;;;3.58;;
635;SDS011;302;50.206;8.196;2023-07-20T06:17:56;4.20;;;3.80;;
635;SDS011;302;50.206;8.196;2023-07-20T06:20:22;4.10;;;3.70;;
635;SDS011;302;50.206;8.196;2023-07-20T06:22:48;3.90;;;3.50;;
635;SDS011;302;50.206;8.196;2023-07-20T06:25:13;3.43;;;3.20;;
635;SDS011;302;50.206;8.196;2023-07-20T06:27:38;6.07;;;3.30;;
635;SDS011;302;50.206;8.196;2023-07-20T06:30:03;3.57;;;3.27;;
635;SDS011;302;50.206;8.196;2023-07-20T06:32:28;3.57;;;3.27;;
635;SDS011;302;50.206;8.196;2023-07-20T06:34:54;4.55;;;4.15;;
635;SDS011;302;50.206;8.196;2023-07-20T06:37:19;4.20;;;3.80;;
635;SDS011;302;50.206;8.196;2023-07-20T06:39:45;4.30;;;3.90;;
635;SDS011;302;50.206;8.196;2023-07-20T06:42:10;4.60;;;4.03;;
635;SDS011;302;50.206;8.196;2023-07-20T06:44:35;5.10;;;4.60;;
635;SDS011;302;50.206;8.196;2023-07-20T06:47:01;4.27;;;3.87;;
635;SDS011;302;50.206;8.196;2023-07-20T06:49:26;4.53;;;4.10;;
635;SDS011;302;50.206;8.196;2023-07-20T06:51:52;4.33;;;4.03;;
635;SDS011;302;50.206;8.196;2023-07-20T06:54:17;5.20;;;4.50;;
635;SDS011;302;50.206;8.196;2023-07-20T06:56:42;4.23;;;3.70;;
635;SDS011;302;50.206;8.196;2023-07-20T06:59:07;4.07;;;3.77;;
635;SDS011;302;50.206;8.196;2023-07-20T07:01:33;5.47;;;4.27;;
635;SDS011;302;50.206;8.196;2023-07-20T07:03:58;6.43;;;4.10;;
635;SDS011;302;50.206;8.196;2023-07-20T07:06:23;3.57;;;3.00;;
635;SDS011;302;50.206;8.196;2023-07-20T07:08:48;4.17;;;3.67;;
635;SDS011;302;50.206;8.196;2023-07-20T07:11:13;3.60;;;3.30;;
635;SDS011;302;50.206;8.196;2023-07-20T07:13:38;3.80;;;3.37;;
635;SDS011;302;50.206;8.196;2023-07-20T07:16:04;5.83;;;3.80;;
635;SDS011;302;50.206;8.196;2023-07-20T07:18:29;3.57;;;3.20;;
635;SDS011;302;50.206;8.196;2023-07-20T07:20:54;3.75;;;3.08;;
635;SDS011;302;50.206;8.196;2023-07-20T07:23:19;3.63;;;3.30;;
635;SDS011;302;50.206;8.196;2023-07-20T07:25:45;3.63;;;3.33;;
635;SDS011;302;50.206;8.196;2023-07-20T07:28:10;6.00;;;3.70;;
635;SDS011;302;50.206;8.196;2023-07-20T07:30:35;3.70;;;3.40;;
635;SDS011;302;50.206;8.196;2023-07-20T07:33:00;3.80;;;3.50;;
635;SDS011;302;50.206;8.196;2023-07-20T07:35:25;3.40;;;3.10;;
635;SDS011;302;50.206;8.196;2023-07-20T07:37:51;4.50;;;4.10;;
635;SDS011;302;50.206;8.196;2023-07-20T07:40:16;4.67;;;3.10;;
635;SDS011;302;50.206;8.196;2023-07-20T07:42:41;5.20;;;4.40;;
635;SDS011;302;50.206;8.196;2023-07-20T07:45:07;4.03;;;3.73;;
635;SDS011;302;50.206;8.196;2023-07-20T07:47:32;4.27;;;3.77;;
635;SDS011;302;50.206;8.196;2023-07-20T07:49:57;3.60;;;3.30;;
635;SDS011;302;50.206;8.196;2023-07-20T07:52:22;4.00;;;3.70;;
635;SDS011;302;50.206;8.196;2023-07-20T07:54:47;5.20;;;3.90;;
635;SDS011;302;50.206;8.196;2023-07-20T07:57:13;4.60;;;4.17;;
635;SDS011;302;50.206;8.196;2023-07-20T07:59:39;3.90;;;3.55;;
635;SDS011;302;50.206;8.196;2023-07-20T08:02:04;4.40;;;4.00;;
635;SDS011;302;50.206;8.196;2023-07-20T08:04:30;6.53;;;4.00;;
635;SDS011;302;50.206;8.196;2023-07-20T08:06:55;4.27;;;3.97;;
635;SDS011;302;50.206;8.196;2023-07-20T08:09:21;4.33;;;3.97;;
635;SDS011;302;50.206;8.196;2023-07-20T08:11:46;5.00;;;4.50;;
635;SDS011;302;50.206;8.196;2023-07-20T08:14:12;4.60;;;4.20;;
635;SDS011;302;50.206;8.196;2023-07-20T08:16:37;3.78;;;3.38;;
635;SDS011;302;50.206;8.196;2023-07-20T08:19:02;4.88;;;4.30;;
635;SDS011;302;50.206;8.196;2023-07-20T08:21:28;4.23;;;3.83;;
635;SDS011;302;50.206;8.196;2023-07-20T08:23:53;4.00;;;3.70;;
635;SDS011;302;50.206;8.196;2023-07-20T08:26:18;4.70;;;4.20;;
635;SDS011;302;50.206;8.196;2023-07-20T08:28:44;4.90;;;4.40;;
635;SDS011;302;50.206;8.196;2023-07-20T08:31:09;4.03;;;3.63;;
635;SDS011;302;50.206;8.196;2023-07-20T08:33:35;4.50;;;3.90;;
635;SDS011;302;50.206;8.196;2023-07-20T08:36:00;4.17;;;3.87;;
635;SDS011;302;50.206;8.196;2023-07-20T08:38:26;4.28;;;3.88;;
635;SDS011;302;50.206;8.196;2023-07-20T08:40:51;3.90;;;3.50;;
635;SDS011;302;50.206;8.196;2023-07-20T08:43:18;9.68;;;3.90;;
635;SDS011;302;50.206;8.196;2023-07-20T08:45:44;4.40;;;3.40;;
635;SDS011;302;50.206;8.196;2023-07-20T08:48:10;3.50;;;3.30;;
635;SDS011;302;50.206;8.196;2023-07-20T08:50:37;4.50;;;3.80;;
635;SDS011;302;50.206;8.196;2023-07-20T08:53:03;3.60;;;3.30;;
635;SDS011;302;50.206;8.196;2023-07-20T08:55:28;3.90;;;3.50;;
635;SDS011;302;50.206;8.196;2023-07-20T08:57:54;4.03;;;3.70;;
635;SDS011;302;50.206;8.196;2023-07-20T09:00:20;5.20;;;4.10;;
635;SDS011;302;50.206;8.196;2023-07-20T09:02:45;3.97;;;3.67;;
635;SDS011;302;50.206;8.196;2023-07-20T09:05:10;3.73;;;3.43;;
635;SDS011;302;50.206;8.196;2023-07-20T09:07:38;5.68;;;3.95;;
635;SDS011;302;50.206;8.196;2023-07-20T09:10:04;4.20;;;2.90;;
635;SDS011;302;50.206;8.196;2023-07-20T09:12:31;4.75;;;2.83;;
635;SDS011;302;50.206;8.196;2023-07-20T09:14:57;3.77;;;2.70;;
635;SDS011;302;50.206;8.196;2023-07-20T09:17:22;3.53;;;3.23;;
635;SDS011;302;50.206;8.196;2023-07-20T09:19:50;3.38;;;3.08;;
635;SDS011;302;50.206;8.196;2023-07-20T09:22:15;4.00;;;2.97;;
635;SDS011;302;50.206;8.196;2023-07-20T09:24:42;2.88;;;2.67;;
635;SDS011;302;50.206;8.196;2023-07-20T09:27:07;2.67;;;2.47;;
635;SDS011;302;50.206;8.196;2023-07-20T09:29:33;3.30;;;2.90;;
635;SDS011;302;50.206;8.196;2023-07-20T09:32:01;3.27;;;3.07;;
635;SDS011;302;50.206;8.196;2023-07-20T09:34:28;3.00;;;2.70;;
635;SDS011;302;50.206;8.196;2023-07-20T09:36:53;3.10;;;2.80;;
635;SDS011;302;50.206;8.196;2023-07-20T09:39:18;3.07;;;2.80;;
635;SDS011;302;50.206;8.196;2023-07-20T09:41:44;3.17;;;2.92;;
635;SDS011;302;50.206;8.196;2023-07-20T09:44:10;2.60;;;2.33;;
635;SDS011;302;50.206;8.196;2023-07-20T09:46:42;3.93;;;3.20;;
635;SDS011;302;50.206;8.196;2023-07-20T09:49:08;3.33;;;3.03;;
635;SDS011;302;50.206;8.196;2023-07-20T09:51:33;3.10;;;2.80;;
635;SDS011;302;50.206;8.196;2023-07-20T09:53:58;3.30;;;3.00;;
635;SDS011;302;50.206;8.196;2023-07-20T09:56:24;3.20;;;2.90;;
635;SDS011;302;50.206;8.196;2023-07-20T09:58:50;3.17;;;2.87;;
635;SDS011;302;50.206;8.196;2023-07-20T10:01:16;3.10;;;2.80;;
635;SDS011;302;50.206;8.196;2023-07-20T10:03:43;4.97;;;2.70;;
635;SDS011;302;50.206;8.196;2023-07-20T10:06:10;3.65;;;2.40;;
635;SDS011;302;50.206;8.196;2023-07-20T10:08:40;3.50;;;3.00;;
635;SDS011;302;50.206;8.196;2023-07-20T10:11:06;3.55;;;2.90;;
635;SDS011;302;50.206;8.196;2023-07-20T10:13:32;3.27;;;3.07;;
635;SDS011;302;50.206;8.196;2023-07-20T10:21:00;3.40;;;2.47;;
635;SDS011;302;50.206;8.196;2023-07-20T10:23:26;3.23;;;2.93;;
635;SDS011;302;50.206;8.196;2023-07-20T10:25:52;3.00;;;2.75;;
635;SDS011;302;50.206;8.196;2023-07-20T10:28:17;2.90;;;2.70;;
635;SDS011;302;50.206;8.196;2023-07-20T10:30:42;3.50;;;3.20;;
635;SDS011;302;50.206;8.196;2023-07-20T10:33:08;3.60;;;2.93;;
635;SDS011;302;50.206;8.196;2023-07-20T10:38:17;3.40;;;2.80;;
635;SDS011;302;50.206;8.196;2023-07-20T10:40:43;2.77;;;2.57;;
635;SDS011;302;50.206;8.196;2023-07-20T10:43:18;2.95;;;2.75;;
635;SDS011;302;50.206;8.196;2023-07-20T10:45:50;4.43;;;2.83;;
635;SDS011;302;50.206;8.196;2023-07-20T10:48:19;4.50;;;2.30;;
635;SDS011;302;50.206;8.196;2023-07-20T10:50:45;2.37;;;1.80;;
635;SDS011;302;50.206;8.196;2023-07-20T10:53:14;2.47;;;2.27;;
635;SDS011;302;50.206;8.196;2023-07-20T10:55:40;2.50;;;2.10;;
635;SDS011;302;50.206;8.196;2023-07-20T10:58:09;2.20;;;2.00;;
635;SDS011;302;50.206;8.196;2023-07-20T11:00:35;2.50;;;2.30;;
635;SDS011;302;50.206;8.196;2023-07-20T11:03:00;2.60;;;2.40;;
635;SDS011;302;50.206;8.196;2023-07-20T11:05:32;2.90;;;2.33;;
635;SDS011;302;50.206;8.196;2023-07-20T11:07:57;3.03;;;2.13;;
635;SDS011;302;50.206;8.196;2023-07-20T11:10:22;2.87;;;2.20;;
635;SDS011;302;50.206;8.196;2023-07-20T11:15:44;2.67;;;2.47;;
635;SDS011;302;50.206;8.196;2023-07-20T11:18:12;2.40;;;2.20;;
635;SDS011;302;50.206;8.196;2023-07-20T11:20:38;2.80;;;2.23;;
635;SDS011;302;50.206;8.196;2023-07-20T11:23:03;2.37;;;2.17;;
635;SDS011;302;50.206;8.196;2023-07-20T11:25:35;2.50;;;2.30;;
635;SDS011;302;50.206;8.196;2023-07-20T11:28:00;2.50;;;2.30;;
635;SDS011;302;50.206;8.196;2023-07-20T11:30:26;2.35;;;2.03;;
635;SDS011;302;50.206;8.196;2023-07-20T11:32:51;2.30;;;2.10;;
635;SDS011;302;50.206;8.196;2023-07-20T11:35:16;2.10;;;1.90;;
635;SDS011;302;50.206;8.196;2023-07-20T11:37:41;1.90;;;1.70;;
635;SDS011;302;50.206;8.196;2023-07-20T11:40:06;1.85;;;1.60;;
635;SDS011;302;50.206;8.196;2023-07-20T11:42:34;2.10;;;1.80;;
635;SDS011;302;50.206;8.196;2023-07-20T11:44:59;1.80;;;1.70;;
635;SDS011;302;50.206;8.196;2023-07-20T11:47:28;2.07;;;1.73;;
635;SDS011;302;50.206;8.196;2023-07-20T11:49:54;2.10;;;1.90;;
635;SDS011;302;50.206;8.196;2023-07-20T11:52:19;2.03;;;1.83;;
635;SDS011;302;50.206;8.196;2023-07-20T11:54:44;1.80;;;1.70;;
635;SDS011;302;50.206;8.196;2023-07-20T11:57:16;3.83;;;2.23;;
635;SDS011;302;50.206;8.196;2023-07-20T11:59:54;2.33;;;1.77;;
635;SDS011;302;50.206;8.196;2023-07-20T12:02:22;1.93;;;1.73;;
635;SDS011;302;50.206;8.196;2023-07-20T12:04:47;2.10;;;1.90;;
635;SDS011;302;50.206;8.196;2023-07-20T12:07:13;2.03;;;1.77;;
635;SDS011;302;50.206;8.196;2023-07-20T12:09:38;2.50;;;2.00;;
635;SDS011;302;50.206;8.196;2023-07-20T12:12:09;2.10;;;1.90;;
635;SDS011;302;50.206;8.196;2023-07-20T12:14:34;1.90;;;1.80;;
635;SDS011;302;50.206;8.196;2023-07-20T12:16:59;2.38;;;1.88;;
635;SDS011;302;50.206;8.196;2023-07-20T12:19:25;3.40;;;1.95;;
635;SDS011;302;50.206;8.196;2023-07-20T12:21:50;2.13;;;1.80;;
635;SDS011;302;50.206;8.196;2023-07-20T12:24:15;2.13;;;1.80;;
635;SDS011;302;50.206;8.196;2023-07-20T12:26:42;1.83;;;1.73;;
635;SDS011;302;50.206;8.196;2023-07-20T12:29:08;2.07;;;1.97;;
635;SDS011;302;50.206;8.196;2023-07-20T12:31:33;2.63;;;1.77;;
635;SDS011;302;50.206;8.196;2023-07-20T12:33:59;1.90;;;1.80;;
635;SDS011;302;50.206;8.196;2023-07-20T12:36:24;2.30;;;2.07;;
635;SDS011;302;50.206;8.196;2023-07-20T12:38:49;2.27;;;1.77;;
635;SDS011;302;50.206;8.196;2023-07-20T12:41:14;2.13;;;1.93;;
635;SDS011;302;50.206;8.196;2023-07-20T12:43:43;2.10;;;1.90;;
635;SDS011;302;50.206;8.196;2023-07-20T12:46:09;2.00;;;1.90;;
635;SDS011;302;50.206;8.196;2023-07-20T12:48:35;1.83;;;1.73;;
635;SDS011;302;50.206;8.196;2023-07-20T12:51:02;2.00;;;1.80;;
635;SDS011;302;50.206;8.196;2023-07-20T12:53:28;2.37;;;2.17;;
635;SDS011;302;50.206;8.196;2023-07-20T12:55:53;1.80;;;1.70;;
635;SDS011;302;50.206;8.196;2023-07-20T12:58:18;2.07;;;1.87;;
635;SDS011;302;50.206;8.196;2023-07-20T13:00:43;1.70;;;1.60;;
635;SDS011;302;50.206;8.196;2023-07-20T13:03:08;2.07;;;1.87;;
635;SDS011;302;50.206;8.196;2023-07-20T13:05:34;1.88;;;1.60;;
635;SDS011;302;50.206;8.196;2023-07-20T13:08:00;2.70;;;1.83;;
635;SDS011;302;50.206;8.196;2023-07-20T13:10:26;1.73;;;1.63;;
635;SDS011;302;50.206;8.196;2023-07-20T13:12:51;2.40;;;1.90;;
635;SDS011;302;50.206;8.196;2023-07-20T13:15:17;1.90;;;1.80;;
635;SDS011;302;50.206;8.196;2023-07-20T13:17:42;2.43;;;1.73;;
635;SDS011;302;50.206;8.196;2023-07-20T13:20:08;3.07;;;2.00;;
635;SDS011;302;50.206;8.196;2023-07-20T13:22:35;2.07;;;1.70;;
635;SDS011;302;50.206;8.196;2023-07-20T13:25:00;1.90;;;1.80;;
635;SDS011;302;50.206;8.196;2023-07-20T13:27:25;1.80;;;1.70;;
635;SDS011;302;50.206;8.196;2023-07-20T13:29:51;1.90;;;1.80;;
635;SDS011;302;50.206;8.196;2023-07-20T13:32:16;2.23;;;2.03;;
635;SDS011;302;50.206;8.196;2023-07-20T13:34:43;1.90;;;1.80;;
635;SDS011;302;50.206;8.196;2023-07-20T13:37:08;1.90;;;1.80;;
635;SDS011;302;50.206;8.196;2023-07-20T13:39:33;1.83;;;1.73;;
635;SDS011;302;50.206;8.196;2023-07-20T13:41:58;2.08;;;1.88;;
635;SDS011;302;50.206;8.196;2023-07-20T13:44:24;2.17;;;1.70;;
635;SDS011;302;50.206;8.196;2023-07-20T13:46:49;2.20;;;1.97;;
635;SDS011;302;50.206;8.196;2023-07-20T13:49:14;2.00;;;1.90;;
635;SDS011;302;50.206;8.196;2023-07-20T13:51:41;2.03;;;1.90;;
635;SDS011;302;50.206;8.196;2023-07-20T13:54:06;2.20;;;2.10;;
635;SDS011;302;50.206;8.196;2023-07-20T13:56:31;2.23;;;2.13;;
635;SDS011;302;50.206;8.196;2023-07-20T13:58:56;1.87;;;1.77;;
635;SDS011;302;50.206;8.196;2023-07-20T14:01:22;2.90;;;2.13;;
635;SDS011;302;50.206;8.196;2023-07-20T14:03:49;2.03;;;1.93;;
635;SDS011;302;50.206;8.196;2023-07-20T14:06:14;2.47;;;2.27;;
635;SDS011;302;50.206;8.196;2023-07-20T14:08:40;2.53;;;1.80;;
635;SDS011;302;50.206;8.196;2023-07-20T14:11:05;2.33;;;2.10;;
635;SDS011;302;50.206;8.196;2023-07-20T14:13:31;1.90;;;1.80;;
635;SDS011;302;50.206;8.196;2023-07-20T14:15:57;2.73;;;2.50;;
635;SDS011;302;50.206;8.196;2023-07-20T14:18:22;2.17;;;2.07;;
635;SDS011;302;50.206;8.196;2023-07-20T14:20:47;1.90;;;1.80;;
635;SDS011;302;50.206;8.196;2023-07-20T14:23:12;2.03;;;1.93;;
635;SDS011;302;50.206;8.196;2023-07-20T14:25:38;2.83;;;1.80;;
635;SDS011;302;50.206;8.196;2023-07-20T14:28:03;3.00;;;1.80;;
635;SDS011;302;50.206;8.196;2023-07-20T14:30:28;3.00;;;1.90;;
635;SDS011;302;50.206;8.196;2023-07-20T14:32:53;1.93;;;1.60;;
635;SDS011;302;50.206;8.196;2023-07-20T14:35:18;2.17;;;1.90;;
635;SDS011;302;50.206;8.196;2023-07-20T14:37:44;1.87;;;1.57;;
635;SDS011;302;50.206;8.196;2023-07-20T14:40:12;1.70;;;1.60;;
635;SDS011;302;50.206;8.196;2023-07-20T14:42:37;1.80;;;1.70;;
635;SDS011;302;50.206;8.196;2023-07-20T14:45:03;2.13;;;1.93;;
635;SDS011;302;50.206;8.196;2023-07-20T14:47:28;2.23;;;1.87;;
635;SDS011;302;50.206;8.196;2023-07-20T14:49:57;2.30;;;2.10;;
635;SDS011;302;50.206;8.196;2023-07-20T14:52:22;1.98;;;1.77;;
635;SDS011;302;50.206;8.196;2023-07-20T14:54:47;1.90;;;1.40;;
635;SDS011;302;50.206;8.196;2023-07-20T14:57:12;2.20;;;2.00;;
635;SDS011;302;50.206;8.196;2023-07-20T14:59:41;2.00;;;1.90;;
635;SDS011;302;50.206;8.196;2023-07-20T15:02:06;3.00;;;1.90;;
635;SDS011;302;50.206;8.196;2023-07-20T15:04:32;1.80;;;1.70;;
635;SDS011;302;50.206;8.196;2023-07-20T15:06:57;1.80;;;1.70;;
635;SDS011;302;50.206;8.196;2023-07-20T15:09:22;2.23;;;1.60;;
635;SDS011;302;50.206;8.196;2023-07-20T15:11:47;2.30;;;1.77;;
635;SDS011;302;50.206;8.196;2023-07-20T15:14:12;1.73;;;1.63;;
635;SDS011;302;50.206;8.196;2023-07-20T15:16:38;1.87;;;1.77;;
635;SDS011;302;50.206;8.196;2023-07-20T15:19:03;1.73;;;1.63;;
635;SDS011;302;50.206;8.196;2023-07-20T15:21:28;1.47;;;1.37;;
635;SDS011;302;50.206;8.196;2023-07-20T15:23:55;2.40;;;1.87;;
635;SDS011;302;50.206;8.196;2023-07-20T15:26:20;1.87;;;1.77;;
635;SDS011;302;50.206;8.196;2023-07-20T15:28:46;2.33;;;2.13;;
635;SDS011;302;50.206;8.196;2023-07-20T15:31:11;2.00;;;1.80;;
635;SDS011;302;50.206;8.196;2023-07-20T15:33:36;3.80;;;2.00;;
635;SDS011;302;50.206;8.196;2023-07-20T15:36:01;1.90;;;1.80;;
635;SDS011;302;50.206;8.196;2023-07-20T15:38:26;1.60;;;1.50;;
635;SDS011;302;50.206;8.196;2023-07-20T15:40:51;2.47;;;1.80;;
635;SDS011;302;50.206;8.196;2023-07-20T15:43:17;2.27;;;1.53;;
635;SDS011;302;50.206;8.196;2023-07-20T15:45:46;1.93;;;1.70;;
635;SDS011;302;50.206;8.196;2023-07-20T15:48:11;2.10;;;2.00;;
635;SDS011;302;50.206;8.196;2023-07-20T15:50:37;2.27;;;1.70;;
635;SDS011;302;50.206;8.196;2023-07-20T15:53:02;1.60;;;1.50;;